This is the latest recevied weather packets stored in our database for station/object DO1BDB-12. If no packets are shown the sender has not sent any weather packets the latest 10 day(s).
| Time | Temp. | Humidity | Pressure | Rain* | Wind** | Luminosity | Snow |
|---|---|---|---|---|---|---|---|
| 1777209575 | 18.33° C | 25% | 102.5 hPa | - | - | - | - |
| 1777209509 | 17.78° C | 23% | 102.5 hPa | - | - | - | - |
| 1777209443 | 17.22° C | 23% | 102.5 hPa | - | - | - | - |
| 1777209378 | 17.22° C | 22% | 102.5 hPa | - | - | - | - |
| 1777209312 | 18.89° C | 26% | 102.5 hPa | - | - | - | - |
| 1777209246 | 18.33° C | 24% | 102.5 hPa | - | - | - | - |
| 1777209180 | 18.33° C | 26% | 102.5 hPa | - | - | - | - |
| 1777209114 | 18.33° C | 26% | 102.5 hPa | - | - | - | - |
| 1777209048 | 17.22° C | 24% | 102.5 hPa | - | - | - | - |
| 1777208983 | 18.89° C | 25% | 102.5 hPa | - | - | - | - |
| 1777208917 | 17.78° C | 24% | 102.5 hPa | - | - | - | - |
| 1777208851 | 17.22° C | 22% | 102.5 hPa | - | - | - | - |
| 1777208785 | 17.22° C | 23% | 102.5 hPa | - | - | - | - |
| 1777208719 | 18.33° C | 25% | 102.5 hPa | - | - | - | - |
| 1777208653 | 17.22° C | 24% | 102.5 hPa | - | - | - | - |
| 1777208587 | 17.78° C | 24% | 102.5 hPa | - | - | - | - |
| 1777208522 | 18.33° C | 26% | 102.5 hPa | - | - | - | - |
| 1777208456 | 17.78° C | 25% | 102.5 hPa | - | - | - | - |
| 1777208390 | 18.33° C | 24% | 102.5 hPa | - | - | - | - |
| 1777208324 | 18.33° C | 24% | 102.5 hPa | - | - | - | - |
| 1777208258 | 18.89° C | 25% | 102.5 hPa | - | - | - | - |
| 1777208192 | 17.78° C | 25% | 102.5 hPa | - | - | - | - |
| 1777208127 | 17.22° C | 25% | 102.5 hPa | - | - | - | - |
| 1777208061 | 16.67° C | 24% | 102.5 hPa | - | - | - | - |
| 1777207995 | 16.67° C | 25% | 102.5 hPa | - | - | - | - |
* Rain since midnight (hover to see other rain measurements)
** Current wind speed in m/s (hover to see current wind gust speed)